sensor_id;sensor_type;location;lat;lon;timestamp;pressure;altitude;pressure_sealevel;temperature;humidity
74778;BME280;63298;53.164;8.610;2023-06-14T00:01:02;101842.00;;;18.13;52.31
74778;BME280;63298;53.164;8.610;2023-06-14T00:03:28;101865.22;;;18.19;52.02
74778;BME280;63298;53.164;8.610;2023-06-14T00:05:54;101864.59;;;18.12;52.87
74778;BME280;63298;53.164;8.610;2023-06-14T00:08:19;101848.31;;;18.04;52.53
74778;BME280;63298;53.164;8.610;2023-06-14T00:10:44;101860.88;;;18.06;52.91
74778;BME280;63298;53.164;8.610;2023-06-14T00:13:10;101872.59;;;18.03;53.01
74778;BME280;63298;53.164;8.610;2023-06-14T00:15:36;101867.25;;;18.02;52.95
74778;BME280;63298;53.164;8.610;2023-06-14T00:18:02;101865.31;;;18.02;53.00
74778;BME280;63298;53.164;8.610;2023-06-14T00:20:29;101876.47;;;18.02;53.13
74778;BME280;63298;53.164;8.610;2023-06-14T00:22:55;101865.50;;;17.96;53.61
74778;BME280;63298;53.164;8.610;2023-06-14T00:25:22;101869.44;;;17.95;53.44
74778;BME280;63298;53.164;8.610;2023-06-14T00:27:47;101864.81;;;17.84;53.98
74778;BME280;63298;53.164;8.610;2023-06-14T00:30:13;101865.91;;;17.83;53.56
74778;BME280;63298;53.164;8.610;2023-06-14T00:32:38;101874.28;;;17.83;53.74
74778;BME280;63298;53.164;8.610;2023-06-14T00:35:04;101870.41;;;17.84;53.79
74778;BME280;63298;53.164;8.610;2023-06-14T00:37:29;101881.56;;;17.84;53.91
74778;BME280;63298;53.164;8.610;2023-06-14T00:39:54;101885.06;;;17.74;54.45
74778;BME280;63298;53.164;8.610;2023-06-14T00:42:27;101885.63;;;17.76;54.81
74778;BME280;63298;53.164;8.610;2023-06-14T00:44:53;101879.25;;;17.76;54.11
74778;BME280;63298;53.164;8.610;2023-06-14T00:47:18;101878.47;;;17.80;53.96
74778;BME280;63298;53.164;8.610;2023-06-14T00:49:45;101870.34;;;17.79;53.76
74778;BME280;63298;53.164;8.610;2023-06-14T00:52:11;101870.59;;;17.77;53.99
74778;BME280;63298;53.164;8.610;2023-06-14T00:54:36;101885.13;;;17.79;54.25
74778;BME280;63298;53.164;8.610;2023-06-14T00:57:01;101890.97;;;17.78;54.42
74778;BME280;63298;53.164;8.610;2023-06-14T00:59:27;101875.31;;;17.77;54.29
74778;BME280;63298;53.164;8.610;2023-06-14T01:01:52;101892.66;;;17.79;54.46
74778;BME280;63298;53.164;8.610;2023-06-14T01:04:17;101890.06;;;17.72;54.95
74778;BME280;63298;53.164;8.610;2023-06-14T01:12:16;101879.88;;;17.61;54.47
74778;BME280;63298;53.164;8.610;2023-06-14T01:14:48;101893.97;;;17.71;54.77
74778;BME280;63298;53.164;8.610;2023-06-14T01:17:13;101891.44;;;17.69;54.73
74778;BME280;63298;53.164;8.610;2023-06-14T01:19:39;101893.31;;;17.64;54.94
74778;BME280;63298;53.164;8.610;2023-06-14T01:22:05;101893.25;;;17.59;55.71
74778;BME280;63298;53.164;8.610;2023-06-14T01:24:30;101892.88;;;17.55;55.27
74778;BME280;63298;53.164;8.610;2023-06-14T01:26:56;101897.53;;;17.50;55.64
74778;BME280;63298;53.164;8.610;2023-06-14T01:29:22;101899.41;;;17.44;55.82
74778;BME280;63298;53.164;8.610;2023-06-14T01:31:49;101899.59;;;17.38;55.92
74778;BME280;63298;53.164;8.610;2023-06-14T01:34:14;101888.88;;;17.30;55.98
74778;BME280;63298;53.164;8.610;2023-06-14T01:36:41;101892.59;;;17.35;55.86
74778;BME280;63298;53.164;8.610;2023-06-14T01:39:11;101885.47;;;17.27;56.86
74778;BME280;63298;53.164;8.610;2023-06-14T01:41:38;101895.88;;;17.32;56.02
74778;BME280;63298;53.164;8.610;2023-06-14T01:44:05;101898.59;;;17.27;56.19
74778;BME280;63298;53.164;8.610;2023-06-14T01:46:30;101902.22;;;17.27;56.28
74778;BME280;63298;53.164;8.610;2023-06-14T01:48:56;101899.72;;;17.26;56.24
74778;BME280;63298;53.164;8.610;2023-06-14T01:51:21;101907.22;;;17.25;56.81
74778;BME280;63298;53.164;8.610;2023-06-14T01:53:47;101910.78;;;17.21;56.43
74778;BME280;63298;53.164;8.610;2023-06-14T01:56:12;101902.91;;;17.18;56.95
74778;BME280;63298;53.164;8.610;2023-06-14T01:58:37;101894.97;;;17.10;56.79
74778;BME280;63298;53.164;8.610;2023-06-14T02:01:02;101896.69;;;17.11;56.44
74778;BME280;63298;53.164;8.610;2023-06-14T02:03:28;101906.22;;;17.15;56.42
74778;BME280;63298;53.164;8.610;2023-06-14T02:05:53;101905.69;;;17.18;56.61
74778;BME280;63298;53.164;8.610;2023-06-14T02:08:18;101904.00;;;17.17;56.76
74778;BME280;63298;53.164;8.610;2023-06-14T02:10:44;101898.41;;;17.17;56.41
74778;BME280;63298;53.164;8.610;2023-06-14T02:13:09;101901.50;;;17.15;56.69
74778;BME280;63298;53.164;8.610;2023-06-14T02:15:34;101904.53;;;17.14;56.72
74778;BME280;63298;53.164;8.610;2023-06-14T02:18:01;101913.50;;;17.16;56.63
74778;BME280;63298;53.164;8.610;2023-06-14T02:20:26;101901.50;;;17.15;56.61
74778;BME280;63298;53.164;8.610;2023-06-14T02:22:52;101912.88;;;17.14;56.84
74778;BME280;63298;53.164;8.610;2023-06-14T02:25:17;101907.31;;;17.14;57.08
74778;BME280;63298;53.164;8.610;2023-06-14T02:27:42;101911.72;;;17.10;57.04
74778;BME280;63298;53.164;8.610;2023-06-14T02:30:08;101921.16;;;17.09;57.13
74778;BME280;63298;53.164;8.610;2023-06-14T02:32:33;101920.00;;;17.05;57.22
74778;BME280;63298;53.164;8.610;2023-06-14T02:34:59;101915.44;;;16.99;57.40
74778;BME280;63298;53.164;8.610;2023-06-14T02:37:27;101919.31;;;16.98;57.36
74778;BME280;63298;53.164;8.610;2023-06-14T02:39:52;101913.16;;;16.96;57.55
74778;BME280;63298;53.164;8.610;2023-06-14T02:42:18;101920.91;;;16.94;57.59
74778;BME280;63298;53.164;8.610;2023-06-14T02:44:43;101926.50;;;16.94;57.82
74778;BME280;63298;53.164;8.610;2023-06-14T02:47:08;101918.88;;;16.89;57.42
74778;BME280;63298;53.164;8.610;2023-06-14T02:49:35;101919.22;;;16.93;57.13
74778;BME280;63298;53.164;8.610;2023-06-14T02:52:00;101925.06;;;16.91;57.35
74778;BME280;63298;53.164;8.610;2023-06-14T02:54:28;101930.28;;;16.88;57.33
74778;BME280;63298;53.164;8.610;2023-06-14T02:56:53;101935.53;;;16.84;57.72
74778;BME280;63298;53.164;8.610;2023-06-14T02:59:19;101923.19;;;16.80;57.80
74778;BME280;63298;53.164;8.610;2023-06-14T03:01:44;101938.06;;;16.86;57.87
74778;BME280;63298;53.164;8.610;2023-06-14T03:04:10;101944.72;;;16.84;57.39
74778;BME280;63298;53.164;8.610;2023-06-14T03:06:36;101948.63;;;16.83;57.77
74778;BME280;63298;53.164;8.610;2023-06-14T03:09:03;101943.56;;;16.80;57.65
74778;BME280;63298;53.164;8.610;2023-06-14T03:11:31;101958.06;;;16.82;57.78
74778;BME280;63298;53.164;8.610;2023-06-14T03:13:57;101949.13;;;16.80;57.50
74778;BME280;63298;53.164;8.610;2023-06-14T03:16:24;101949.59;;;16.77;58.11
74778;BME280;63298;53.164;8.610;2023-06-14T03:18:51;101957.16;;;16.77;58.31
74778;BME280;63298;53.164;8.610;2023-06-14T03:21:18;101960.75;;;16.77;58.10
74778;BME280;63298;53.164;8.610;2023-06-14T03:23:43;101969.38;;;16.76;58.26
74778;BME280;63298;53.164;8.610;2023-06-14T03:26:09;101966.50;;;16.71;58.19
74778;BME280;63298;53.164;8.610;2023-06-14T03:28:34;101972.31;;;16.69;58.61
74778;BME280;63298;53.164;8.610;2023-06-14T03:31:00;101971.47;;;16.69;58.37
74778;BME280;63298;53.164;8.610;2023-06-14T03:33:27;101970.91;;;16.67;58.46
74778;BME280;63298;53.164;8.610;2023-06-14T03:35:52;101954.44;;;16.54;58.28
74778;BME280;63298;53.164;8.610;2023-06-14T03:38:18;101974.44;;;16.62;58.84
74778;BME280;63298;53.164;8.610;2023-06-14T03:40:43;101973.22;;;16.58;58.50
74778;BME280;63298;53.164;8.610;2023-06-14T03:43:08;101964.25;;;16.56;59.05
74778;BME280;63298;53.164;8.610;2023-06-14T03:45:33;101987.25;;;16.63;58.96
74778;BME280;63298;53.164;8.610;2023-06-14T03:47:59;101974.78;;;16.66;58.43
74778;BME280;63298;53.164;8.610;2023-06-14T03:50:24;101979.72;;;16.64;58.87
74778;BME280;63298;53.164;8.610;2023-06-14T03:52:49;101973.06;;;16.65;58.86
74778;BME280;63298;53.164;8.610;2023-06-14T03:55:15;101973.69;;;16.67;58.50
74778;BME280;63298;53.164;8.610;2023-06-14T03:57:40;101976.81;;;16.70;58.41
74778;BME280;63298;53.164;8.610;2023-06-14T04:00:06;101971.22;;;16.70;58.63
74778;BME280;63298;53.164;8.610;2023-06-14T04:02:32;101966.16;;;16.67;58.72
74778;BME280;63298;53.164;8.610;2023-06-14T04:04:57;101974.88;;;16.71;58.56
74778;BME280;63298;53.164;8.610;2023-06-14T04:07:22;101985.25;;;16.75;58.29
74778;BME280;63298;53.164;8.610;2023-06-14T04:09:48;101983.66;;;16.79;58.53
74778;BME280;63298;53.164;8.610;2023-06-14T04:12:13;101986.13;;;16.76;58.63
74778;BME280;63298;53.164;8.610;2023-06-14T04:14:39;101996.00;;;16.83;58.20
74778;BME280;63298;53.164;8.610;2023-06-14T04:17:05;101999.97;;;16.88;58.41
74778;BME280;63298;53.164;8.610;2023-06-14T04:19:30;101999.47;;;16.91;58.31
74778;BME280;63298;53.164;8.610;2023-06-14T04:21:56;102003.34;;;16.90;58.72
74778;BME280;63298;53.164;8.610;2023-06-14T04:24:21;102001.44;;;16.90;58.35
74778;BME280;63298;53.164;8.610;2023-06-14T04:26:46;101996.94;;;16.89;58.63
74778;BME280;63298;53.164;8.610;2023-06-14T04:29:12;102003.97;;;16.92;58.64
74778;BME280;63298;53.164;8.610;2023-06-14T04:31:37;102013.50;;;16.96;58.31
74778;BME280;63298;53.164;8.610;2023-06-14T04:34:03;102013.50;;;16.96;58.35
74778;BME280;63298;53.164;8.610;2023-06-14T04:36:28;102013.25;;;16.97;58.23
74778;BME280;63298;53.164;8.610;2023-06-14T04:38:53;102013.09;;;17.04;57.93
74778;BME280;63298;53.164;8.610;2023-06-14T04:41:21;102010.16;;;17.10;58.03
74778;BME280;63298;53.164;8.610;2023-06-14T04:43:47;102010.16;;;17.10;58.08
74778;BME280;63298;53.164;8.610;2023-06-14T04:46:12;102011.84;;;17.11;57.94
74778;BME280;63298;53.164;8.610;2023-06-14T04:48:39;102008.78;;;17.13;58.25
74778;BME280;63298;53.164;8.610;2023-06-14T04:51:04;102006.44;;;17.05;58.43
74778;BME280;63298;53.164;8.610;2023-06-14T04:53:30;102018.84;;;17.14;57.83
74778;BME280;63298;53.164;8.610;2023-06-14T04:55:55;102021.13;;;17.17;57.97
74778;BME280;63298;53.164;8.610;2023-06-14T04:58:20;102024.53;;;17.19;58.17
74778;BME280;63298;53.164;8.610;2023-06-14T05:00:46;102015.56;;;17.17;57.98
74778;BME280;63298;53.164;8.610;2023-06-14T05:03:11;102025.78;;;17.28;57.89
74778;BME280;63298;53.164;8.610;2023-06-14T05:05:36;102020.31;;;17.33;57.77
74778;BME280;63298;53.164;8.610;2023-06-14T05:08:02;102011.94;;;17.33;57.38
74778;BME280;63298;53.164;8.610;2023-06-14T05:10:27;102023.59;;;17.47;57.14
74778;BME280;63298;53.164;8.610;2023-06-14T05:12:52;102020.63;;;17.53;57.09
74778;BME280;63298;53.164;8.610;2023-06-14T05:15:18;102016.09;;;17.64;57.01
74778;BME280;63298;53.164;8.610;2023-06-14T05:17:45;102025.16;;;17.71;56.90
74778;BME280;63298;53.164;8.610;2023-06-14T05:20:11;102029.97;;;17.76;56.62
74778;BME280;63298;53.164;8.610;2023-06-14T05:22:36;102019.69;;;17.81;56.39
74778;BME280;63298;53.164;8.610;2023-06-14T05:25:02;102026.22;;;17.87;56.52
74778;BME280;63298;53.164;8.610;2023-06-14T05:27:27;102022.06;;;17.89;56.19
74778;BME280;63298;53.164;8.610;2023-06-14T05:29:52;102032.53;;;17.99;56.09
74778;BME280;63298;53.164;8.610;2023-06-14T05:32:18;102027.53;;;18.01;56.13
74778;BME280;63298;53.164;8.610;2023-06-14T05:34:43;102031.59;;;18.10;55.90
74778;BME280;63298;53.164;8.610;2023-06-14T05:37:08;102033.84;;;18.13;55.78
74778;BME280;63298;53.164;8.610;2023-06-14T05:39:34;102033.41;;;18.21;55.66
74778;BME280;63298;53.164;8.610;2023-06-14T05:41:59;102034.31;;;18.27;55.43
74778;BME280;63298;53.164;8.610;2023-06-14T05:44:24;102036.25;;;18.26;55.35
74778;BME280;63298;53.164;8.610;2023-06-14T05:46:50;102037.41;;;18.25;55.32
74778;BME280;63298;53.164;8.610;2023-06-14T05:49:15;102043.06;;;18.30;55.13
74778;BME280;63298;53.164;8.610;2023-06-14T05:51:40;102045.31;;;18.33;54.96
74778;BME280;63298;53.164;8.610;2023-06-14T05:54:05;102048.69;;;18.35;54.96
74778;BME280;63298;53.164;8.610;2023-06-14T05:56:31;102050.44;;;18.41;54.96
74778;BME280;63298;53.164;8.610;2023-06-14T05:58:56;102051.09;;;18.48;54.89
74778;BME280;63298;53.164;8.610;2023-06-14T06:01:21;102050.00;;;18.49;54.87
74778;BME280;63298;53.164;8.610;2023-06-14T06:03:47;102048.88;;;18.50;54.95
74778;BME280;63298;53.164;8.610;2023-06-14T06:06:12;102051.41;;;18.52;54.86
74778;BME280;63298;53.164;8.610;2023-06-14T06:08:37;102062.38;;;18.53;55.09
74778;BME280;63298;53.164;8.610;2023-06-14T06:11:03;102072.53;;;18.60;54.87
74778;BME280;63298;53.164;8.610;2023-06-14T06:13:28;102071.22;;;18.67;54.88
74778;BME280;63298;53.164;8.610;2023-06-14T06:15:53;102075.63;;;18.63;55.13
74778;BME280;63298;53.164;8.610;2023-06-14T06:18:19;102070.91;;;18.64;54.87
74778;BME280;63298;53.164;8.610;2023-06-14T06:20:44;102077.41;;;18.69;54.92
74778;BME280;63298;53.164;8.610;2023-06-14T06:23:09;102072.69;;;18.75;55.10
74778;BME280;63298;53.164;8.610;2023-06-14T06:25:35;102072.19;;;18.78;54.92
74778;BME280;63298;53.164;8.610;2023-06-14T06:28:00;102077.03;;;18.87;54.77
74778;BME280;63298;53.164;8.610;2023-06-14T06:30:25;102078.50;;;18.95;54.74
74778;BME280;63298;53.164;8.610;2023-06-14T06:32:51;102083.66;;;19.03;54.79
74778;BME280;63298;53.164;8.610;2023-06-14T06:35:16;102082.31;;;19.11;54.76
74778;BME280;63298;53.164;8.610;2023-06-14T06:37:42;102077.69;;;19.21;54.58
74778;BME280;63298;53.164;8.610;2023-06-14T06:40:08;102081.69;;;19.30;54.67
74778;BME280;63298;53.164;8.610;2023-06-14T06:42:34;102079.84;;;19.41;54.61
74778;BME280;63298;53.164;8.610;2023-06-14T06:44:59;102076.06;;;19.52;54.20
74778;BME280;63298;53.164;8.610;2023-06-14T06:47:24;102085.69;;;19.66;54.18
74778;BME280;63298;53.164;8.610;2023-06-14T06:49:50;102075.44;;;19.77;53.79
74778;BME280;63298;53.164;8.610;2023-06-14T06:52:15;102077.72;;;19.85;53.50
74778;BME280;63298;53.164;8.610;2023-06-14T06:54:41;102086.75;;;19.92;53.50
74778;BME280;63298;53.164;8.610;2023-06-14T06:57:06;102087.34;;;19.99;53.32
74778;BME280;63298;53.164;8.610;2023-06-14T06:59:32;102088.22;;;20.05;53.29
74778;BME280;63298;53.164;8.610;2023-06-14T07:01:57;102095.84;;;20.14;52.81
74778;BME280;63298;53.164;8.610;2023-06-14T07:04:23;102087.47;;;20.19;52.76
74778;BME280;63298;53.164;8.610;2023-06-14T07:06:48;102076.03;;;20.26;52.33
74778;BME280;63298;53.164;8.610;2023-06-14T07:09:13;102087.06;;;20.43;52.25
74778;BME280;63298;53.164;8.610;2023-06-14T07:11:39;102078.69;;;20.48;52.01
74778;BME280;63298;53.164;8.610;2023-06-14T07:14:05;102093.34;;;20.60;51.78
74778;BME280;63298;53.164;8.610;2023-06-14T07:16:30;102096.47;;;20.74;51.28
74778;BME280;63298;53.164;8.610;2023-06-14T07:18:55;102094.00;;;20.87;50.79
74778;BME280;63298;53.164;8.610;2023-06-14T07:21:20;102093.50;;;21.00;50.63
74778;BME280;63298;53.164;8.610;2023-06-14T07:23:46;102092.94;;;21.08;50.26
74778;BME280;63298;53.164;8.610;2023-06-14T07:26:11;102090.78;;;21.21;49.33
74778;BME280;63298;53.164;8.610;2023-06-14T07:28:36;102091.34;;;21.28;49.26
74778;BME280;63298;53.164;8.610;2023-06-14T07:31:02;102082.94;;;21.33;49.20
74778;BME280;63298;53.164;8.610;2023-06-14T07:33:27;102085.22;;;21.41;48.42
74778;BME280;63298;53.164;8.610;2023-06-14T07:35:52;102094.16;;;21.38;48.09
74778;BME280;63298;53.164;8.610;2023-06-14T07:38:17;102085.47;;;21.44;48.20
74778;BME280;63298;53.164;8.610;2023-06-14T07:40:43;102084.63;;;21.49;47.79
74778;BME280;63298;53.164;8.610;2023-06-14T07:43:08;102091.66;;;21.62;47.13
74778;BME280;63298;53.164;8.610;2023-06-14T07:45:33;102081.84;;;21.64;47.38
74778;BME280;63298;53.164;8.610;2023-06-14T07:47:59;102076.50;;;21.78;47.26
74778;BME280;63298;53.164;8.610;2023-06-14T07:50:24;102077.06;;;21.90;46.80
74778;BME280;63298;53.164;8.610;2023-06-14T07:52:49;102080.16;;;21.99;46.34
74778;BME280;63298;53.164;8.610;2023-06-14T07:55:15;102083.81;;;22.09;46.13
74778;BME280;63298;53.164;8.610;2023-06-14T07:57:40;102075.38;;;22.14;45.66
74778;BME280;63298;53.164;8.610;2023-06-14T08:00:06;102089.94;;;22.21;44.07
74778;BME280;63298;53.164;8.610;2023-06-14T08:02:31;102086.88;;;22.13;44.53
74778;BME280;63298;53.164;8.610;2023-06-14T08:04:57;102085.75;;;22.14;44.56
74778;BME280;63298;53.164;8.610;2023-06-14T08:07:22;102071.69;;;22.24;44.76
74778;BME280;63298;53.164;8.610;2023-06-14T08:09:47;102074.13;;;22.46;44.41
74778;BME280;63298;53.164;8.610;2023-06-14T08:12:13;102085.88;;;22.63;44.13
74778;BME280;63298;53.164;8.610;2023-06-14T08:14:39;102074.91;;;22.71;43.38
74778;BME280;63298;53.164;8.610;2023-06-14T08:17:05;102091.13;;;22.90;43.14
74778;BME280;63298;53.164;8.610;2023-06-14T08:19:30;102091.66;;;23.02;43.24
74778;BME280;63298;53.164;8.610;2023-06-14T08:21:55;102092.97;;;23.14;43.25
74778;BME280;63298;53.164;8.610;2023-06-14T08:24:21;102094.06;;;23.23;42.98
74778;BME280;63298;53.164;8.610;2023-06-14T08:26:47;102094.81;;;23.34;42.55
74778;BME280;63298;53.164;8.610;2023-06-14T08:29:12;102094.19;;;23.47;42.69
74778;BME280;63298;53.164;8.610;2023-06-14T08:31:37;102087.28;;;23.63;42.11
74778;BME280;63298;53.164;8.610;2023-06-14T08:34:03;102089.59;;;23.61;41.33
74778;BME280;63298;53.164;8.610;2023-06-14T08:36:28;102085.34;;;23.59;41.36
74778;BME280;63298;53.164;8.610;2023-06-14T08:38:53;102090.91;;;23.69;41.31
74778;BME280;63298;53.164;8.610;2023-06-14T08:41:22;102086.00;;;23.85;41.48
74778;BME280;63298;53.164;8.610;2023-06-14T08:43:47;102071.84;;;23.90;40.52
74778;BME280;63298;53.164;8.610;2023-06-14T08:46:14;102079.13;;;23.96;40.47
74778;BME280;63298;53.164;8.610;2023-06-14T08:48:42;102075.69;;;23.99;40.49
74778;BME280;63298;53.164;8.610;2023-06-14T08:51:07;102082.19;;;23.99;40.48
74778;BME280;63298;53.164;8.610;2023-06-14T08:53:35;102068.31;;;24.03;40.63
74778;BME280;63298;53.164;8.610;2023-06-14T08:56:02;102084.84;;;24.20;40.40
74778;BME280;63298;53.164;8.610;2023-06-14T08:58:28;102069.16;;;24.32;40.28
74778;BME280;63298;53.164;8.610;2023-06-14T09:00:54;102078.06;;;24.44;40.05
74778;BME280;63298;53.164;8.610;2023-06-14T09:03:19;102074.50;;;24.58;40.11
74778;BME280;63298;53.164;8.610;2023-06-14T09:05:44;102079.50;;;24.66;40.04
74778;BME280;63298;53.164;8.610;2023-06-14T09:08:09;102090.06;;;24.79;39.99
74778;BME280;63298;53.164;8.610;2023-06-14T09:10:35;102074.81;;;24.80;39.11
74778;BME280;63298;53.164;8.610;2023-06-14T09:13:01;102079.72;;;24.93;39.43
74778;BME280;63298;53.164;8.610;2023-06-14T09:15:26;102093.41;;;25.05;39.23
74778;BME280;63298;53.164;8.610;2023-06-14T09:17:53;102091.72;;;25.04;39.22
74778;BME280;63298;53.164;8.610;2023-06-14T09:20:18;102082.97;;;25.05;38.87
74778;BME280;63298;53.164;8.610;2023-06-14T09:22:44;102086.06;;;25.04;38.31
74778;BME280;63298;53.164;8.610;2023-06-14T09:25:09;102085.53;;;25.02;38.36
74778;BME280;63298;53.164;8.610;2023-06-14T09:27:35;102079.81;;;25.07;38.20
74778;BME280;63298;53.164;8.610;2023-06-14T09:30:00;102068.66;;;24.97;38.31
74778;BME280;63298;53.164;8.610;2023-06-14T09:32:25;102069.59;;;25.11;37.97
74778;BME280;63298;53.164;8.610;2023-06-14T09:34:52;102088.31;;;25.25;38.56
74778;BME280;63298;53.164;8.610;2023-06-14T09:37:30;102082.94;;;25.43;38.59
74778;BME280;63298;53.164;8.610;2023-06-14T09:39:57;102076.44;;;25.61;38.61
74778;BME280;63298;53.164;8.610;2023-06-14T09:42:23;102093.16;;;25.76;38.00
74778;BME280;63298;53.164;8.610;2023-06-14T09:44:49;102095.16;;;25.75;37.54
74778;BME280;63298;53.164;8.610;2023-06-14T09:47:15;102075.09;;;25.58;37.03
74778;BME280;63298;53.164;8.610;2023-06-14T09:49:41;102087.28;;;25.54;37.46
74778;BME280;63298;53.164;8.610;2023-06-14T09:52:10;102080.81;;;25.53;37.32
74778;BME280;63298;53.164;8.610;2023-06-14T09:54:40;102077.00;;;25.63;37.30
74778;BME280;63298;53.164;8.610;2023-06-14T09:57:07;102072.22;;;25.77;36.87
74778;BME280;63298;53.164;8.610;2023-06-14T09:59:33;102076.09;;;25.81;37.32
74778;BME280;63298;53.164;8.610;2023-06-14T10:01:59;102074.88;;;25.87;37.21
74778;BME280;63298;53.164;8.610;2023-06-14T10:04:31;102068.50;;;25.95;36.85
74778;BME280;63298;53.164;8.610;2023-06-14T10:06:58;102064.22;;;25.98;36.93
74778;BME280;63298;53.164;8.610;2023-06-14T10:09:24;102067.81;;;26.03;36.25
74778;BME280;63298;53.164;8.610;2023-06-14T10:11:50;102066.03;;;26.07;36.62
74778;BME280;63298;53.164;8.610;2023-06-14T10:14:16;102067.59;;;26.13;37.14
74778;BME280;63298;53.164;8.610;2023-06-14T10:19:29;102073.13;;;26.37;36.03
74778;BME280;63298;53.164;8.610;2023-06-14T10:22:01;102065.66;;;26.55;36.41
74778;BME280;63298;53.164;8.610;2023-06-14T10:24:33;102073.53;;;26.58;35.47
74778;BME280;63298;53.164;8.610;2023-06-14T10:26:59;102068.38;;;26.60;35.77
74778;BME280;63298;53.164;8.610;2023-06-14T10:29:24;102069.00;;;26.71;35.76
74778;BME280;63298;53.164;8.610;2023-06-14T10:31:50;102054.34;;;26.69;35.20
74778;BME280;63298;53.164;8.610;2023-06-14T10:34:28;102060.44;;;26.62;34.64
74778;BME280;63298;53.164;8.610;2023-06-14T10:37:06;102060.63;;;26.65;34.75
74778;BME280;63298;53.164;8.610;2023-06-14T10:39:38;102059.34;;;26.85;35.34
74778;BME280;63298;53.164;8.610;2023-06-14T10:42:05;102055.59;;;27.03;34.91
74778;BME280;63298;53.164;8.610;2023-06-14T10:46:58;102039.97;;;26.92;35.31
74778;BME280;63298;53.164;8.610;2023-06-14T10:49:42;102050.16;;;26.93;34.65
74778;BME280;63298;53.164;8.610;2023-06-14T10:52:11;102054.25;;;26.87;34.82
74778;BME280;63298;53.164;8.610;2023-06-14T10:54:37;102060.41;;;26.76;35.00
74778;BME280;63298;53.164;8.610;2023-06-14T10:57:06;102055.47;;;26.81;35.04
74778;BME280;63298;53.164;8.610;2023-06-14T10:59:32;102049.06;;;27.03;34.75
74778;BME280;63298;53.164;8.610;2023-06-14T11:04:51;102044.34;;;27.34;34.29
74778;BME280;63298;53.164;8.610;2023-06-14T11:10:38;102021.63;;;27.48;33.55
74778;BME280;63298;53.164;8.610;2023-06-14T11:13:04;102045.88;;;27.76;33.58
74778;BME280;63298;53.164;8.610;2023-06-14T11:15:30;102047.34;;;27.74;32.48
74778;BME280;63298;53.164;8.610;2023-06-14T11:17:56;102036.19;;;27.55;32.49
74778;BME280;63298;53.164;8.610;2023-06-14T11:20:24;102023.91;;;27.24;32.79
74778;BME280;63298;53.164;8.610;2023-06-14T11:22:50;102025.59;;;27.25;32.63
74778;BME280;63298;53.164;8.610;2023-06-14T11:25:15;102026.38;;;27.39;33.15
74778;BME280;63298;53.164;8.610;2023-06-14T11:27:42;102026.03;;;27.40;32.80
74778;BME280;63298;53.164;8.610;2023-06-14T11:30:08;102025.88;;;27.37;32.71
74778;BME280;63298;53.164;8.610;2023-06-14T11:32:33;102016.09;;;27.07;32.65
74778;BME280;63298;53.164;8.610;2023-06-14T11:34:59;102012.25;;;27.03;32.81
74778;BME280;63298;53.164;8.610;2023-06-14T11:37:25;102013.22;;;27.21;32.59
74778;BME280;63298;53.164;8.610;2023-06-14T11:39:52;102018.34;;;27.55;32.84
74778;BME280;63298;53.164;8.610;2023-06-14T11:42:17;102002.56;;;27.93;32.73
74778;BME280;63298;53.164;8.610;2023-06-14T11:44:46;101991.50;;;28.14;31.46
74778;BME280;63298;53.164;8.610;2023-06-14T11:47:11;102008.75;;;28.26;32.33
74778;BME280;63298;53.164;8.610;2023-06-14T11:49:37;102004.59;;;28.32;32.04
74778;BME280;63298;53.164;8.610;2023-06-14T11:52:02;101992.91;;;28.33;32.36
74778;BME280;63298;53.164;8.610;2023-06-14T11:54:28;101998.50;;;28.56;32.39
74778;BME280;63298;53.164;8.610;2023-06-14T11:56:54;102000.44;;;28.38;31.44
74778;BME280;63298;53.164;8.610;2023-06-14T11:59:20;102002.28;;;28.03;31.23
74778;BME280;63298;53.164;8.610;2023-06-14T12:01:47;101999.25;;;28.00;31.33
74778;BME280;63298;53.164;8.610;2023-06-14T12:04:13;101999.88;;;28.19;31.98
74778;BME280;63298;53.164;8.610;2023-06-14T12:06:38;101995.59;;;28.30;31.84
74778;BME280;63298;53.164;8.610;2023-06-14T12:09:07;101990.25;;;28.37;31.80
74778;BME280;63298;53.164;8.610;2023-06-14T12:11:35;101984.09;;;28.52;31.42
74778;BME280;63298;53.164;8.610;2023-06-14T12:14:00;101974.78;;;28.60;31.40
74778;BME280;63298;53.164;8.610;2023-06-14T12:16:38;101982.78;;;28.67;30.21
74778;BME280;63298;53.164;8.610;2023-06-14T12:19:11;101993.06;;;28.37;30.31
74778;BME280;63298;53.164;8.610;2023-06-14T12:21:38;101980.75;;;28.02;31.21
74778;BME280;63298;53.164;8.610;2023-06-14T12:24:03;101979.06;;;28.01;31.67
74778;BME280;63298;53.164;8.610;2023-06-14T12:26:29;101996.22;;;27.87;31.37
74778;BME280;63298;53.164;8.610;2023-06-14T12:28:54;101981.22;;;27.65;31.91
74778;BME280;63298;53.164;8.610;2023-06-14T12:31:20;101995.72;;;27.63;32.01
74778;BME280;63298;53.164;8.610;2023-06-14T12:33:46;101999.50;;;27.81;32.11
74778;BME280;63298;53.164;8.610;2023-06-14T12:36:11;101978.25;;;28.01;31.78
74778;BME280;63298;53.164;8.610;2023-06-14T12:38:37;101981.25;;;28.44;32.15
74778;BME280;63298;53.164;8.610;2023-06-14T12:41:03;101980.63;;;28.64;31.52
74778;BME280;63298;53.164;8.610;2023-06-14T12:43:29;101982.53;;;28.94;31.46
74778;BME280;63298;53.164;8.610;2023-06-14T12:45:54;101978.84;;;29.11;30.92
74778;BME280;63298;53.164;8.610;2023-06-14T12:48:20;101975.03;;;29.33;30.92
74778;BME280;63298;53.164;8.610;2023-06-14T12:50:46;101978.31;;;29.60;30.51
74778;BME280;63298;53.164;8.610;2023-06-14T12:53:11;101982.63;;;29.75;30.27
74778;BME280;63298;53.164;8.610;2023-06-14T12:55:37;101988.50;;;29.79;30.17
74778;BME280;63298;53.164;8.610;2023-06-14T12:58:02;101970.06;;;29.85;30.37
74778;BME280;63298;53.164;8.610;2023-06-14T13:00:27;101970.53;;;29.87;29.77